Terminal Aerodrome Forecast
Issued by NWS

Home | Current Version | Previous Version | Text Only | Print | Product List | Glossary On
Versions: 1 2 3 4 5 6 7 8 9 10 11 12 13
000
FTUS45 KABQ 050532
TAFSAF
TAF
KSAF 050532Z 0506/0606 01009KT P6SM SKC
     FM051930 28010KT P6SM SCT100
     FM060200 01006KT P6SM SKC=

USA.gov is the U.S. government's official web portal to all federal, state and local government web resources and services.